createdAt,value
2018-12-20T00:00:54.248Z,0.00
2018-12-20T00:01:54.204Z,0.00
2018-12-20T00:02:54.200Z,0.00
2018-12-20T00:03:54.239Z,0.00
2018-12-20T00:04:54.167Z,0.00
2018-12-20T00:05:54.275Z,0.00
2018-12-20T00:06:54.170Z,0.00
2018-12-20T00:07:54.141Z,0.00
2018-12-20T00:08:54.161Z,0.00
2018-12-20T00:09:54.241Z,0.00
2018-12-20T00:10:54.106Z,0.00
2018-12-20T00:11:54.116Z,0.00
2018-12-20T00:12:54.089Z,0.00
2018-12-20T00:13:54.076Z,0.00
2018-12-20T00:14:54.069Z,0.00
2018-12-20T00:15:54.168Z,0.00
2018-12-20T00:16:54.082Z,0.00
2018-12-20T00:17:54.053Z,0.00
2018-12-20T00:18:54.153Z,0.00
2018-12-20T00:19:54.042Z,0.00
2018-12-20T00:20:54.098Z,0.00
2018-12-20T00:21:54.024Z,0.00
2018-12-20T00:22:53.981Z,0.00
2018-12-20T00:23:54.077Z,0.00
2018-12-20T00:24:53.955Z,0.00
2018-12-20T00:25:54.031Z,0.00
2018-12-20T00:26:54.034Z,0.00
2018-12-20T00:27:53.995Z,0.00
2018-12-20T00:28:53.911Z,0.00
2018-12-20T00:29:53.996Z,0.00
2018-12-20T00:30:53.959Z,0.00
2018-12-20T00:31:53.895Z,0.00
2018-12-20T00:32:53.889Z,0.00
2018-12-20T00:33:54.003Z,0.00
2018-12-20T00:34:53.901Z,0.00
2018-12-20T00:35:53.857Z,0.00
2018-12-20T00:36:53.928Z,0.00
2018-12-20T00:37:53.813Z,0.00
2018-12-20T00:38:53.973Z,0.00
2018-12-20T00:39:53.787Z,0.00
2018-12-20T00:40:53.870Z,0.00
2018-12-20T00:41:53.885Z,0.00
2018-12-20T00:42:53.756Z,0.00
2018-12-20T00:43:53.843Z,0.00
2018-12-20T00:44:53.730Z,0.00
2018-12-20T00:45:53.726Z,0.00
2018-12-20T00:46:53.784Z,0.00
2018-12-20T00:47:53.706Z,0.00
2018-12-20T00:48:53.739Z,0.00
2018-12-20T00:49:53.729Z,0.00
2018-12-20T00:50:53.830Z,0.00
2018-12-20T00:51:53.658Z,0.00
2018-12-20T00:52:53.687Z,0.00
2018-12-20T00:53:53.645Z,0.00
2018-12-20T00:54:53.693Z,0.00
2018-12-20T00:55:53.839Z,0.00
2018-12-20T00:56:53.739Z,0.00
2018-12-20T00:57:53.642Z,0.00
2018-12-20T00:58:53.747Z,0.00
2018-12-20T00:59:53.654Z,0.00
2018-12-20T01:00:53.558Z,0.00
2018-12-20T01:01:53.639Z,0.00
2018-12-20T01:02:55.411Z,0.00
2018-12-20T01:03:53.542Z,0.00
2018-12-20T01:04:53.514Z,0.00
2018-12-20T01:05:53.640Z,0.00
2018-12-20T01:06:53.486Z,0.00
2018-12-20T01:07:53.561Z,0.00
2018-12-20T01:08:53.625Z,0.00
2018-12-20T01:09:53.493Z,0.00
2018-12-20T01:10:53.447Z,0.00
2018-12-20T01:11:53.431Z,0.00
2018-12-20T01:12:53.560Z,0.00
2018-12-20T01:13:53.417Z,0.00
2018-12-20T01:14:53.542Z,0.00
2018-12-20T01:15:53.413Z,0.00
2018-12-20T01:16:53.487Z,0.00
2018-12-20T01:17:53.362Z,0.00
2018-12-20T01:18:53.425Z,0.00
2018-12-20T01:19:53.472Z,0.00
2018-12-20T01:20:53.332Z,0.00
2018-12-20T01:21:53.339Z,0.00
2018-12-20T01:22:53.450Z,0.00
2018-12-20T01:23:53.441Z,0.00
2018-12-20T01:24:53.349Z,0.00
2018-12-20T01:25:53.290Z,0.00
2018-12-20T01:26:53.339Z,0.00
2018-12-20T01:27:53.458Z,0.00
2018-12-20T01:28:53.245Z,0.00
2018-12-20T01:29:53.448Z,0.00
2018-12-20T01:30:53.261Z,0.00
2018-12-20T01:31:53.336Z,0.00
2018-12-20T01:32:53.348Z,0.00
2018-12-20T01:33:53.216Z,0.00
2018-12-20T01:34:53.194Z,0.00
2018-12-20T01:35:53.209Z,0.00
2018-12-20T01:36:53.158Z,0.00
2018-12-20T01:37:53.155Z,0.00
2018-12-20T01:38:53.204Z,0.00
2018-12-20T01:39:53.252Z,0.00
2018-12-20T01:40:53.113Z,0.00
2018-12-20T01:41:53.105Z,0.00
2018-12-20T01:42:53.140Z,0.00
2018-12-20T01:43:53.102Z,0.00
2018-12-20T01:44:53.612Z,0.00
2018-12-20T01:45:53.177Z,0.00
2018-12-20T01:46:53.084Z,0.00
2018-12-20T01:47:53.105Z,0.00
2018-12-20T01:48:53.069Z,0.00
2018-12-20T01:49:53.049Z,0.00
2018-12-20T01:50:53.017Z,0.00
2018-12-20T01:51:52.992Z,0.00
2018-12-20T01:52:52.980Z,0.00
2018-12-20T01:53:53.186Z,0.00
2018-12-20T01:54:53.093Z,0.00
2018-12-20T01:55:52.968Z,0.00
2018-12-20T01:56:52.946Z,0.00
2018-12-20T01:57:52.921Z,0.00
2018-12-20T01:58:53.143Z,0.00
2018-12-20T01:59:52.933Z,0.00
2018-12-20T02:00:52.923Z,0.00
2018-12-20T02:01:52.891Z,0.00
2018-12-20T02:02:52.868Z,0.00
2018-12-20T02:03:52.999Z,0.00
2018-12-20T02:04:52.859Z,0.00
2018-12-20T02:05:52.843Z,0.00
2018-12-20T02:06:52.937Z,0.00
2018-12-20T02:07:52.881Z,0.00
2018-12-20T02:08:52.962Z,0.00
2018-12-20T02:09:53.000Z,0.00
2018-12-20T02:10:52.804Z,0.00
2018-12-20T02:11:52.794Z,0.00
2018-12-20T02:12:52.763Z,0.00
2018-12-20T02:13:52.751Z,0.00
2018-12-20T02:14:52.877Z,0.00
2018-12-20T02:15:52.809Z,0.00
2018-12-20T02:16:52.743Z,0.00
2018-12-20T02:17:52.832Z,0.00
2018-12-20T02:18:52.893Z,0.00
2018-12-20T02:19:52.799Z,0.00
2018-12-20T02:20:52.840Z,0.00
2018-12-20T02:21:52.747Z,0.00
2018-12-20T02:22:52.835Z,0.00
2018-12-20T02:23:52.715Z,0.00
2018-12-20T02:24:52.672Z,0.00
2018-12-20T02:25:52.650Z,0.00
2018-12-20T02:26:52.789Z,0.00
2018-12-20T02:27:52.597Z,0.00
2018-12-20T02:28:52.646Z,0.00
2018-12-20T02:29:52.652Z,0.00
2018-12-20T02:30:52.662Z,0.00
2018-12-20T02:31:52.611Z,0.00
2018-12-20T02:32:52.610Z,0.00
2018-12-20T02:33:52.573Z,0.00
2018-12-20T02:34:52.588Z,0.00
2018-12-20T02:35:52.508Z,0.00
2018-12-20T02:36:52.549Z,0.00
2018-12-20T02:37:52.701Z,0.00
2018-12-20T02:38:52.702Z,0.00
2018-12-20T02:39:52.698Z,0.00
2018-12-20T02:40:52.464Z,0.00
2018-12-20T02:41:52.732Z,0.00
2018-12-20T02:42:52.437Z,0.00
2018-12-20T02:43:52.484Z,0.00
2018-12-20T02:44:52.618Z,0.00
2018-12-20T02:45:52.626Z,0.00
2018-12-20T02:46:52.387Z,0.00
2018-12-20T02:47:52.405Z,0.00
2018-12-20T02:48:52.535Z,0.00
2018-12-20T02:49:52.383Z,0.00
2018-12-20T02:50:52.493Z,0.00
2018-12-20T02:51:52.644Z,0.00
2018-12-20T02:52:52.322Z,0.00
2018-12-20T02:53:52.495Z,0.00
2018-12-20T02:54:52.519Z,0.00
2018-12-20T02:55:52.299Z,0.00
2018-12-20T02:56:52.287Z,0.00
2018-12-20T02:57:52.494Z,0.00
2018-12-20T02:58:52.466Z,0.00
2018-12-20T02:59:52.588Z,0.00
2018-12-20T03:00:52.255Z,0.00
2018-12-20T03:01:52.392Z,0.00
2018-12-20T03:02:52.218Z,0.00
2018-12-20T03:03:52.207Z,0.00
2018-12-20T03:04:52.204Z,0.00
2018-12-20T03:05:52.421Z,0.00
2018-12-20T03:06:52.185Z,0.00
2018-12-20T03:07:52.373Z,0.00
2018-12-20T03:08:52.148Z,0.00
2018-12-20T03:09:52.295Z,0.00
2018-12-20T03:10:52.127Z,0.00
2018-12-20T03:11:52.137Z,0.00
2018-12-20T03:12:52.122Z,0.00
2018-12-20T03:13:52.180Z,0.00
2018-12-20T03:14:52.419Z,0.00
2018-12-20T03:15:52.089Z,0.00
2018-12-20T03:16:52.065Z,0.00
2018-12-20T03:17:52.061Z,0.00
2018-12-20T03:18:52.040Z,0.00
2018-12-20T03:19:52.232Z,0.00
2018-12-20T03:20:52.066Z,0.00
2018-12-20T03:21:52.015Z,0.00
2018-12-20T03:22:52.000Z,0.00
2018-12-20T03:23:51.986Z,0.00
2018-12-20T03:24:52.043Z,0.00
2018-12-20T03:25:52.042Z,0.00
2018-12-20T03:26:52.011Z,0.00
2018-12-20T03:27:51.999Z,0.00
2018-12-20T03:28:52.165Z,0.00
2018-12-20T03:29:51.945Z,0.00
2018-12-20T03:30:52.482Z,0.00
2018-12-20T03:31:51.950Z,0.00
2018-12-20T03:32:51.895Z,0.00
2018-12-20T03:33:51.873Z,0.00
2018-12-20T03:34:51.866Z,0.00
2018-12-20T03:35:51.953Z,0.00
2018-12-20T03:36:52.069Z,0.00
2018-12-20T03:37:51.915Z,0.00
2018-12-20T03:38:51.821Z,0.00
2018-12-20T03:39:51.890Z,0.00
2018-12-20T03:40:51.878Z,0.00
2018-12-20T03:41:51.831Z,0.00
2018-12-20T03:42:51.892Z,0.00
2018-12-20T03:43:51.770Z,0.00
2018-12-20T03:44:51.767Z,0.00
2018-12-20T03:45:51.800Z,0.00
2018-12-20T03:46:51.755Z,0.00
2018-12-20T03:47:51.752Z,0.00
2018-12-20T03:48:51.835Z,0.00
2018-12-20T03:49:51.725Z,0.00
2018-12-20T03:50:51.987Z,0.00
2018-12-20T03:51:51.805Z,0.00
2018-12-20T03:52:51.858Z,0.00
2018-12-20T03:53:51.677Z,0.00
2018-12-20T03:54:51.672Z,0.00
2018-12-20T03:55:51.695Z,0.00
2018-12-20T03:56:51.895Z,0.00
2018-12-20T03:57:51.611Z,0.00
2018-12-20T03:58:51.623Z,0.00
2018-12-20T03:59:51.614Z,0.00
2018-12-20T04:00:51.671Z,0.00
2018-12-20T04:01:51.670Z,0.00
2018-12-20T04:02:51.614Z,0.00
2018-12-20T04:03:51.664Z,0.00
2018-12-20T04:04:51.550Z,0.00
2018-12-20T04:05:51.556Z,0.00
2018-12-20T04:06:51.706Z,0.00
2018-12-20T04:07:51.507Z,0.00
2018-12-20T04:08:51.498Z,0.00
2018-12-20T04:09:51.485Z,0.00
2018-12-20T04:10:51.507Z,0.00
2018-12-20T04:11:51.471Z,0.00
2018-12-20T04:12:51.444Z,0.00
2018-12-20T04:13:51.468Z,0.00
2018-12-20T04:14:51.485Z,0.00
2018-12-20T04:15:51.725Z,0.00
2018-12-20T04:16:51.615Z,0.00
2018-12-20T04:17:51.426Z,0.00
2018-12-20T04:18:51.410Z,0.00
2018-12-20T04:19:51.368Z,0.00
2018-12-20T04:20:51.386Z,0.00
2018-12-20T04:21:51.434Z,0.00
2018-12-20T04:22:51.461Z,0.00
2018-12-20T04:23:51.454Z,0.00
2018-12-20T04:24:51.316Z,0.00
2018-12-20T04:25:51.312Z,0.00
2018-12-20T04:26:51.317Z,0.00
2018-12-20T04:27:51.351Z,0.00
2018-12-20T04:28:51.331Z,0.00
2018-12-20T04:29:51.466Z,0.00
2018-12-20T04:30:51.285Z,0.00
2018-12-20T04:31:51.471Z,0.00
2018-12-20T04:32:51.229Z,0.00
2018-12-20T04:33:51.224Z,0.00
2018-12-20T04:34:51.315Z,0.00
2018-12-20T04:35:51.212Z,0.00
2018-12-20T04:36:51.193Z,0.00
2018-12-20T04:37:51.221Z,0.00
2018-12-20T04:38:51.168Z,0.00
2018-12-20T04:39:51.364Z,0.00
2018-12-20T04:40:51.165Z,0.00
2018-12-20T04:41:51.262Z,0.00
2018-12-20T04:42:51.252Z,0.00
2018-12-20T04:43:51.101Z,0.00
2018-12-20T04:44:51.227Z,0.00
2018-12-20T04:45:51.559Z,0.00
2018-12-20T04:46:51.304Z,0.00
2018-12-20T04:47:51.294Z,0.00
2018-12-20T04:48:51.209Z,0.00
2018-12-20T04:49:51.258Z,0.00
2018-12-20T04:50:51.040Z,0.00
2018-12-20T04:51:51.057Z,0.00
2018-12-20T04:52:51.267Z,0.00
2018-12-20T04:53:51.043Z,0.00
2018-12-20T04:54:51.263Z,0.00
2018-12-20T04:55:50.983Z,0.00
2018-12-20T04:56:50.963Z,0.00
2018-12-20T04:57:50.946Z,0.00
2018-12-20T04:58:50.949Z,0.00
2018-12-20T04:59:51.002Z,0.00
2018-12-20T05:00:51.031Z,0.00
2018-12-20T05:01:50.924Z,0.00
2018-12-20T05:02:50.911Z,0.00
2018-12-20T05:03:50.894Z,0.00
2018-12-20T05:04:50.887Z,0.00
2018-12-20T05:05:50.858Z,0.00
2018-12-20T05:06:50.862Z,0.00
2018-12-20T05:07:50.851Z,0.00
2018-12-20T05:08:50.849Z,0.00
2018-12-20T05:09:50.840Z,0.00
2018-12-20T05:10:51.026Z,0.00
2018-12-20T05:11:51.149Z,0.00
2018-12-20T05:12:50.799Z,0.00
2018-12-20T05:13:50.783Z,0.00
2018-12-20T05:14:50.868Z,0.00
2018-12-20T05:15:56.017Z,0.00
2018-12-20T05:16:51.749Z,0.00
2018-12-20T05:17:50.856Z,0.00
2018-12-20T05:18:50.741Z,0.00
2018-12-20T05:19:50.745Z,0.00
2018-12-20T05:20:50.708Z,0.00
2018-12-20T05:21:50.826Z,0.00
2018-12-20T05:22:50.671Z,0.00
2018-12-20T05:23:50.671Z,0.00
2018-12-20T05:24:50.663Z,0.00
2018-12-20T05:25:50.686Z,0.00
2018-12-20T05:26:50.739Z,0.00
2018-12-20T05:27:50.650Z,0.00
2018-12-20T05:28:50.906Z,0.00
2018-12-20T05:29:50.773Z,0.00
2018-12-20T05:30:50.653Z,0.00
2018-12-20T05:31:50.586Z,0.00
2018-12-20T05:32:50.786Z,0.00
2018-12-20T05:33:50.721Z,0.00
2018-12-20T05:34:50.758Z,0.00
2018-12-20T05:35:50.550Z,0.00
2018-12-20T05:36:50.548Z,0.00
2018-12-20T05:37:50.552Z,0.00
2018-12-20T05:38:50.497Z,0.00
2018-12-20T05:39:50.493Z,0.00
2018-12-20T05:40:50.481Z,0.00
2018-12-20T05:41:50.677Z,0.00
2018-12-20T05:42:50.599Z,0.00
2018-12-20T05:43:50.709Z,0.00
2018-12-20T05:44:50.548Z,0.00
2018-12-20T05:45:50.458Z,0.00
2018-12-20T05:46:50.415Z,0.00
2018-12-20T05:47:50.402Z,0.00
2018-12-20T05:48:50.475Z,0.00
2018-12-20T05:49:50.395Z,0.00
2018-12-20T05:50:50.378Z,0.00
2018-12-20T05:51:50.413Z,0.00
2018-12-20T05:52:50.356Z,0.00
2018-12-20T05:53:50.352Z,0.00
2018-12-20T05:54:50.344Z,0.00
2018-12-20T05:55:50.313Z,0.00
2018-12-20T05:56:50.417Z,0.00
2018-12-20T05:57:50.545Z,0.00
2018-12-20T05:58:50.432Z,0.00
2018-12-20T05:59:50.276Z,0.00
2018-12-20T06:00:50.254Z,0.00
2018-12-20T06:01:50.251Z,0.00
2018-12-20T06:02:50.385Z,0.00
2018-12-20T06:03:50.329Z,0.00
2018-12-20T06:04:50.338Z,0.00
2018-12-20T06:05:50.429Z,0.00
2018-12-20T06:06:50.213Z,0.00
2018-12-20T06:07:50.184Z,0.00
2018-12-20T06:08:50.403Z,0.00
2018-12-20T06:09:50.461Z,0.00
2018-12-20T06:10:50.148Z,0.00
2018-12-20T06:11:50.152Z,0.00
2018-12-20T06:12:50.284Z,0.00
2018-12-20T06:13:50.361Z,0.00
2018-12-20T06:14:50.103Z,0.00
2018-12-20T06:15:50.275Z,0.00
2018-12-20T06:16:50.346Z,0.00
2018-12-20T06:17:50.069Z,0.00
2018-12-20T06:18:50.279Z,0.00
2018-12-20T06:19:50.133Z,0.00
2018-12-20T06:20:50.131Z,0.00
2018-12-20T06:21:50.164Z,0.00
2018-12-20T06:22:50.011Z,0.00
2018-12-20T06:23:50.007Z,0.00
2018-12-20T06:24:49.981Z,0.00
2018-12-20T06:25:49.973Z,0.00
2018-12-20T06:26:49.984Z,0.00
2018-12-20T06:27:49.953Z,0.00
2018-12-20T06:28:49.938Z,0.00
2018-12-20T06:29:49.924Z,0.00
2018-12-20T06:30:49.924Z,0.00
2018-12-20T06:31:49.924Z,0.00
2018-12-20T06:32:49.895Z,0.00
2018-12-20T06:33:49.880Z,0.00
2018-12-20T06:34:49.884Z,0.00
2018-12-20T06:35:49.865Z,0.00
2018-12-20T06:36:49.865Z,0.00
2018-12-20T06:37:49.849Z,0.00
2018-12-20T06:38:49.838Z,0.00
2018-12-20T06:39:49.860Z,0.00
2018-12-20T06:40:49.805Z,0.00
2018-12-20T06:41:49.920Z,0.00
2018-12-20T06:42:49.780Z,0.00
2018-12-20T06:43:49.780Z,0.00
2018-12-20T06:44:49.784Z,0.00
2018-12-20T06:45:49.749Z,0.00
2018-12-20T06:46:49.748Z,0.00
2018-12-20T06:47:49.729Z,0.00
2018-12-20T06:48:49.728Z,0.00
2018-12-20T06:49:49.704Z,0.00
2018-12-20T06:50:49.690Z,4.00
2018-12-20T06:51:49.706Z,4.00
2018-12-20T06:52:49.678Z,4.00
2018-12-20T06:53:49.656Z,0.00
2018-12-20T06:54:49.651Z,0.00
2018-12-20T06:55:49.653Z,4.00
2018-12-20T06:56:49.628Z,4.00
2018-12-20T06:57:49.621Z,8.00
2018-12-20T06:58:49.605Z,8.00
2018-12-20T06:59:49.590Z,8.00
2018-12-20T07:00:49.592Z,8.00
2018-12-20T07:01:49.567Z,8.00
2018-12-20T07:02:49.573Z,12.00
2018-12-20T07:03:49.545Z,16.00
2018-12-20T07:04:49.533Z,16.00
2018-12-20T07:05:49.523Z,16.00
2018-12-20T07:06:49.521Z,16.00
2018-12-20T07:07:49.515Z,20.00
2018-12-20T07:08:49.487Z,24.00
2018-12-20T07:09:49.486Z,28.00
2018-12-20T07:10:49.466Z,36.00
2018-12-20T07:11:49.464Z,44.00
2018-12-20T07:12:49.466Z,52.00
2018-12-20T07:13:49.548Z,56.00
2018-12-20T07:14:49.422Z,60.00
2018-12-20T07:15:49.424Z,64.00
2018-12-20T07:16:49.402Z,72.00
2018-12-20T07:17:49.409Z,76.00
2018-12-20T07:18:49.384Z,84.00
2018-12-20T07:19:49.369Z,84.00
2018-12-20T07:20:49.372Z,88.00
2018-12-20T07:21:49.345Z,92.00
2018-12-20T07:22:49.346Z,96.00
2018-12-20T07:23:49.351Z,104.00
2018-12-20T07:24:49.319Z,116.00
2018-12-20T07:25:49.343Z,120.00
2018-12-20T07:26:49.300Z,128.00
2018-12-20T07:27:49.285Z,136.00
2018-12-20T07:28:49.270Z,152.00
2018-12-20T07:29:49.272Z,164.00
2018-12-20T07:30:49.250Z,172.00
2018-12-20T07:31:49.231Z,184.00
2018-12-20T07:32:49.318Z,196.00
2018-12-20T07:33:49.211Z,212.00
2018-12-20T07:34:49.213Z,224.00
2018-12-20T07:35:49.213Z,236.00
2018-12-20T07:36:49.201Z,248.00
2018-12-20T07:37:49.180Z,240.00
2018-12-20T07:38:49.174Z,208.00
2018-12-20T07:39:49.144Z,192.00
2018-12-20T07:40:49.138Z,196.00
2018-12-20T07:41:49.134Z,236.00
2018-12-20T07:42:49.127Z,296.00
2018-12-20T07:43:49.096Z,328.00
2018-12-20T07:44:49.089Z,344.00
2018-12-20T07:45:49.216Z,368.00
2018-12-20T07:46:49.084Z,388.00
2018-12-20T07:47:49.074Z,404.00
2018-12-20T07:48:49.044Z,420.00
2018-12-20T07:49:49.032Z,436.00
2018-12-20T07:50:49.019Z,460.00
2018-12-20T07:51:49.015Z,484.00
2018-12-20T07:52:49.032Z,504.00
2018-12-20T07:53:49.015Z,520.00
2018-12-20T07:54:48.999Z,528.00
2018-12-20T07:55:48.972Z,552.00
2018-12-20T07:56:48.952Z,552.00
2018-12-20T07:57:48.960Z,576.00
2018-12-20T07:58:48.948Z,612.00
2018-12-20T07:59:48.922Z,664.00
2018-12-20T08:00:48.908Z,708.00
2018-12-20T08:01:48.904Z,740.00
2018-12-20T08:02:49.405Z,664.00
2018-12-20T08:03:48.878Z,664.00
2018-12-20T08:04:48.912Z,572.00
2018-12-20T08:05:48.863Z,716.00
2018-12-20T08:06:48.872Z,860.00
2018-12-20T08:07:48.844Z,884.00
2018-12-20T08:08:48.831Z,852.00
2018-12-20T08:09:48.811Z,920.00
2018-12-20T08:10:48.795Z,956.00
2018-12-20T08:11:48.801Z,960.00
2018-12-20T08:12:48.786Z,1072.00
2018-12-20T08:13:48.763Z,1124.00
2018-12-20T08:14:48.774Z,1160.00
2018-12-20T08:15:50.629Z,1180.00
2018-12-20T08:16:48.731Z,1192.00
2018-12-20T08:17:48.744Z,1204.00
2018-12-20T08:18:48.713Z,1212.00
2018-12-20T08:19:48.701Z,1224.00
2018-12-20T08:20:48.708Z,1248.00
2018-12-20T08:21:48.683Z,1272.00
2018-12-20T08:22:48.690Z,1288.00
2018-12-20T08:23:48.650Z,1280.00
2018-12-20T08:24:48.641Z,1120.00
2018-12-20T08:25:48.639Z,940.00
2018-12-20T08:26:48.619Z,996.00
2018-12-20T08:27:48.623Z,1024.00
2018-12-20T08:28:48.619Z,1092.00
2018-12-20T08:29:48.585Z,1064.00
2018-12-20T08:30:48.589Z,1156.00
2018-12-20T08:31:48.572Z,1248.00
2018-12-20T08:32:48.564Z,1352.00
2018-12-20T08:33:48.562Z,1428.00
2018-12-20T08:34:48.545Z,1420.00
2018-12-20T08:35:48.519Z,1552.00
2018-12-20T08:36:48.523Z,1636.00
2018-12-20T08:37:48.509Z,1572.00
2018-12-20T08:38:48.494Z,1420.00
2018-12-20T08:39:48.488Z,1176.00
2018-12-20T08:40:48.466Z,1104.00
2018-12-20T08:41:48.451Z,1352.00
2018-12-20T08:42:48.462Z,1340.00
2018-12-20T08:43:48.443Z,1248.00
2018-12-20T08:44:48.439Z,1464.00
2018-12-20T08:45:48.422Z,1488.00
2018-12-20T08:46:54.320Z,1196.00
2018-12-20T08:47:49.419Z,1448.00
2018-12-20T08:48:48.385Z,1404.00
2018-12-20T08:49:48.376Z,1248.00
2018-12-20T08:50:48.357Z,1164.00
2018-12-20T08:51:49.124Z,1000.00
2018-12-20T08:52:48.353Z,1096.00
2018-12-20T08:53:48.344Z,1208.00
2018-12-20T08:54:48.316Z,1164.00
2018-12-20T08:55:48.302Z,1148.00
2018-12-20T08:56:48.316Z,1216.00
2018-12-20T08:57:48.300Z,1324.00
2018-12-20T08:58:48.298Z,1312.00
2018-12-20T08:59:48.269Z,1704.00
2018-12-20T09:00:48.297Z,1600.00
2018-12-20T09:01:48.231Z,1436.00
2018-12-20T09:02:48.224Z,1628.00
2018-12-20T09:03:48.221Z,1544.00
2018-12-20T09:04:48.245Z,1596.00
2018-12-20T09:05:48.213Z,1768.00
2018-12-20T09:06:48.177Z,1972.00
2018-12-20T09:07:48.167Z,2060.00
2018-12-20T09:08:48.176Z,2156.00
2018-12-20T09:09:48.142Z,2204.00
2018-12-20T09:10:48.149Z,2200.00
2018-12-20T09:11:48.119Z,2112.00
2018-12-20T09:12:48.115Z,2004.00
2018-12-20T09:13:48.108Z,1956.00
2018-12-20T09:14:48.088Z,1852.00
2018-12-20T09:15:48.195Z,1728.00
2018-12-20T09:16:48.067Z,1492.00
2018-12-20T09:17:48.094Z,1408.00
2018-12-20T09:18:48.050Z,1568.00
2018-12-20T09:19:48.040Z,1712.00
2018-12-20T09:20:48.024Z,1940.00
2018-12-20T09:21:48.017Z,1756.00
2018-12-20T09:22:48.068Z,1840.00
2018-12-20T09:23:48.397Z,1828.00
2018-12-20T09:24:48.046Z,1912.00
2018-12-20T09:25:47.996Z,1852.00
2018-12-20T09:26:48.016Z,2036.00
2018-12-20T09:27:47.947Z,2160.00
2018-12-20T09:28:47.964Z,2380.00
2018-12-20T09:29:47.920Z,2468.00
2018-12-20T09:30:47.910Z,2520.00
2018-12-20T09:31:47.903Z,2368.00
2018-12-20T09:32:47.951Z,2236.00
2018-12-20T09:33:47.910Z,1992.00
2018-12-20T09:34:47.868Z,2040.00
2018-12-20T09:35:47.854Z,2036.00
2018-12-20T09:36:47.858Z,1952.00
2018-12-20T09:37:47.831Z,1860.00
2018-12-20T09:38:47.848Z,1568.00
2018-12-20T09:39:47.817Z,1504.00
2018-12-20T09:40:47.798Z,1480.00
2018-12-20T09:41:47.788Z,1504.00
2018-12-20T09:42:47.784Z,1584.00
2018-12-20T09:43:47.788Z,1588.00
2018-12-20T09:44:47.791Z,1448.00
2018-12-20T09:45:47.750Z,1564.00
2018-12-20T09:46:47.743Z,1644.00
2018-12-20T09:47:47.722Z,1500.00
2018-12-20T09:48:47.721Z,1468.00
2018-12-20T09:49:47.701Z,1448.00
2018-12-20T09:50:47.723Z,1720.00
2018-12-20T09:51:47.676Z,1896.00
2018-12-20T09:52:47.670Z,1956.00
2018-12-20T09:53:47.670Z,1944.00
2018-12-20T09:54:47.653Z,1732.00
2018-12-20T09:55:47.645Z,1800.00
2018-12-20T09:56:47.623Z,1988.00
2018-12-20T09:57:47.631Z,2128.00
2018-12-20T09:58:47.614Z,2184.00
2018-12-20T09:59:47.590Z,2244.00
2018-12-20T10:00:47.577Z,2156.00
2018-12-20T10:01:47.590Z,2172.00
2018-12-20T10:02:47.623Z,2288.00
2018-12-20T10:03:47.578Z,2308.00
2018-12-20T10:04:47.555Z,2120.00
2018-12-20T10:05:47.536Z,1776.00
2018-12-20T10:06:47.514Z,1444.00
2018-12-20T10:07:47.526Z,1284.00
2018-12-20T10:08:47.500Z,1264.00
2018-12-20T10:09:47.481Z,1376.00
2018-12-20T10:10:47.466Z,1220.00
2018-12-20T10:11:47.460Z,1300.00
2018-12-20T10:12:47.456Z,1372.00
2018-12-20T10:13:47.442Z,1232.00
2018-12-20T10:14:47.435Z,1260.00
2018-12-20T10:15:47.414Z,1248.00
2018-12-20T10:16:47.402Z,1316.00
2018-12-20T10:17:47.408Z,1532.00
2018-12-20T10:18:47.397Z,1744.00
2018-12-20T10:19:47.368Z,1928.00
2018-12-20T10:20:47.355Z,2128.00
2018-12-20T10:21:47.345Z,2160.00
2018-12-20T10:22:47.336Z,2164.00
2018-12-20T10:23:47.335Z,2276.00
2018-12-20T10:24:47.315Z,2276.00
2018-12-20T10:25:47.305Z,2356.00
2018-12-20T10:26:47.293Z,2516.00
2018-12-20T10:27:47.314Z,2472.00
2018-12-20T10:28:47.277Z,2528.00
2018-12-20T10:29:47.269Z,2316.00
2018-12-20T10:30:47.255Z,1944.00
2018-12-20T10:31:47.241Z,1772.00
2018-12-20T10:32:47.221Z,1764.00
2018-12-20T10:33:47.223Z,1788.00
2018-12-20T10:34:47.204Z,1580.00
2018-12-20T10:35:47.195Z,1444.00
2018-12-20T10:36:47.179Z,1300.00
2018-12-20T10:37:47.188Z,1432.00
2018-12-20T10:38:47.184Z,1392.00
2018-12-20T10:39:47.171Z,1256.00
2018-12-20T10:40:47.234Z,1156.00
2018-12-20T10:41:47.134Z,1132.00
2018-12-20T10:42:47.216Z,1088.00
2018-12-20T10:43:47.394Z,1156.00
2018-12-20T10:44:47.182Z,1196.00
2018-12-20T10:45:47.076Z,1340.00
2018-12-20T10:46:47.068Z,1268.00
2018-12-20T10:47:47.058Z,1180.00
2018-12-20T10:48:47.065Z,1112.00
2018-12-20T10:49:47.046Z,1096.00
2018-12-20T10:50:47.024Z,1076.00
2018-12-20T10:51:47.019Z,1116.00
2018-12-20T10:52:47.003Z,1224.00
2018-12-20T10:53:46.994Z,1344.00
2018-12-20T10:54:46.992Z,1352.00
2018-12-20T10:55:46.968Z,1316.00
2018-12-20T10:56:46.962Z,1348.00
2018-12-20T10:57:46.954Z,1356.00
2018-12-20T10:58:46.937Z,1352.00
2018-12-20T10:59:46.937Z,1292.00
2018-12-20T11:00:46.926Z,1144.00
2018-12-20T11:01:46.905Z,1092.00
2018-12-20T11:02:46.890Z,1076.00
2018-12-20T11:03:47.885Z,1064.00
2018-12-20T11:04:46.885Z,992.00
2018-12-20T11:05:46.860Z,1044.00
2018-12-20T11:06:46.849Z,1040.00
2018-12-20T11:07:46.834Z,944.00
2018-12-20T11:08:46.829Z,848.00
2018-12-20T11:09:46.831Z,896.00
2018-12-20T11:10:46.811Z,996.00
2018-12-20T11:11:46.793Z,1024.00
2018-12-20T11:12:46.777Z,1004.00
2018-12-20T11:13:46.766Z,1032.00
2018-12-20T11:14:46.768Z,1076.00
2018-12-20T11:15:46.754Z,1032.00
2018-12-20T11:16:46.743Z,992.00
2018-12-20T11:17:46.729Z,916.00
2018-12-20T11:18:46.720Z,888.00
2018-12-20T11:19:46.714Z,888.00
2018-12-20T11:20:46.689Z,876.00
2018-12-20T11:21:46.681Z,852.00
2018-12-20T11:22:46.694Z,828.00
2018-12-20T11:23:46.658Z,908.00
2018-12-20T11:24:46.689Z,932.00
2018-12-20T11:25:46.643Z,1000.00
2018-12-20T11:26:46.665Z,1040.00
2018-12-20T11:27:46.615Z,1080.00
2018-12-20T11:28:46.620Z,1136.00
2018-12-20T11:29:46.603Z,1188.00
2018-12-20T11:30:46.586Z,1352.00
2018-12-20T11:31:46.567Z,1424.00
2018-12-20T11:32:46.560Z,1548.00
2018-12-20T11:33:46.550Z,1656.00
2018-12-20T11:34:46.558Z,1732.00
2018-12-20T11:35:46.524Z,1808.00
2018-12-20T11:36:46.520Z,2016.00
2018-12-20T11:37:46.500Z,2416.00
2018-12-20T11:38:46.504Z,2864.00
2018-12-20T11:39:46.488Z,3196.00
2018-12-20T11:40:46.496Z,3292.00
2018-12-20T11:41:46.475Z,3296.00
2018-12-20T11:42:46.446Z,3240.00
2018-12-20T11:43:46.435Z,3076.00
2018-12-20T11:44:46.436Z,3004.00
2018-12-20T11:45:46.436Z,3032.00
2018-12-20T11:46:46.429Z,3052.00
2018-12-20T11:47:46.457Z,2976.00
2018-12-20T11:48:46.380Z,2788.00
2018-12-20T11:49:46.406Z,2936.00
2018-12-20T11:50:46.367Z,2972.00
2018-12-20T11:51:46.364Z,2788.00
2018-12-20T11:52:46.337Z,2904.00
2018-12-20T11:53:46.348Z,2872.00
2018-12-20T11:54:46.326Z,2972.00
2018-12-20T11:55:46.334Z,3152.00
2018-12-20T11:56:46.294Z,3292.00
2018-12-20T11:57:46.297Z,3436.00
2018-12-20T11:58:46.317Z,3528.00
2018-12-20T11:59:46.286Z,3616.00
2018-12-20T12:00:46.248Z,3688.00
2018-12-20T12:01:46.244Z,3592.00
2018-12-20T12:02:46.241Z,3532.00
2018-12-20T12:03:46.253Z,3456.00
2018-12-20T12:04:46.223Z,3652.00
2018-12-20T12:05:46.191Z,3700.00
2018-12-20T12:06:46.193Z,3576.00
2018-12-20T12:07:46.179Z,3580.00
2018-12-20T12:08:46.165Z,3544.00
2018-12-20T12:09:46.160Z,3496.00
2018-12-20T12:10:46.138Z,3404.00
2018-12-20T12:11:46.129Z,3352.00
2018-12-20T12:12:46.113Z,3240.00
2018-12-20T12:13:46.108Z,3072.00
2018-12-20T12:14:46.113Z,2956.00
2018-12-20T12:15:46.085Z,2908.00
2018-12-20T12:16:46.069Z,2808.00
2018-12-20T12:17:54.046Z,2808.00
2018-12-20T12:18:47.055Z,2716.00
2018-12-20T12:19:46.150Z,2560.00
2018-12-20T12:20:46.048Z,2588.00
2018-12-20T12:21:46.015Z,2848.00
2018-12-20T12:22:46.005Z,3172.00
2018-12-20T12:23:45.998Z,3292.00
2018-12-20T12:24:46.013Z,3220.00
2018-12-20T12:25:45.987Z,3088.00
2018-12-20T12:26:45.961Z,2996.00
2018-12-20T12:27:45.953Z,2724.00
2018-12-20T12:28:45.935Z,2772.00
2018-12-20T12:29:45.926Z,2776.00
2018-12-20T12:30:45.947Z,2888.00
2018-12-20T12:31:45.920Z,3048.00
2018-12-20T12:32:45.892Z,3408.00
2018-12-20T12:33:45.883Z,3572.00
2018-12-20T12:34:45.873Z,5412.00
2018-12-20T12:35:45.871Z,4944.00
2018-12-20T12:36:45.868Z,6184.00
2018-12-20T12:37:45.870Z,5644.00
2018-12-20T12:38:45.833Z,5004.00
2018-12-20T12:39:45.814Z,5144.00
2018-12-20T12:40:45.812Z,5700.00
2018-12-20T12:41:45.796Z,5336.00
2018-12-20T12:42:45.798Z,4212.00
2018-12-20T12:43:50.953Z,5112.00
2018-12-20T12:44:46.760Z,5348.00
2018-12-20T12:45:47.474Z,4784.00
2018-12-20T12:46:45.738Z,4888.00
2018-12-20T12:47:45.731Z,4600.00